sensor_id;sensor_type;location;lat;lon;timestamp;temperature;humidity
38436;DHT22;24220;48.168;14.024;2023-07-31T00:02:01;21.40;85.10
38436;DHT22;24220;48.168;14.024;2023-07-31T00:04:31;21.40;85.30
38436;DHT22;24220;48.168;14.024;2023-07-31T00:07:00;21.40;85.30
38436;DHT22;24220;48.168;14.024;2023-07-31T00:09:28;21.40;85.20
38436;DHT22;24220;48.168;14.024;2023-07-31T00:12:00;21.40;85.40
38436;DHT22;24220;48.168;14.024;2023-07-31T00:14:29;21.40;85.60
38436;DHT22;24220;48.168;14.024;2023-07-31T00:16:57;21.30;85.40
38436;DHT22;24220;48.168;14.024;2023-07-31T00:19:26;21.40;85.70
38436;DHT22;24220;48.168;14.024;2023-07-31T00:21:53;21.30;86.30
38436;DHT22;24220;48.168;14.024;2023-07-31T00:24:21;21.30;85.80
38436;DHT22;24220;48.168;14.024;2023-07-31T00:26:50;21.30;85.80
38436;DHT22;24220;48.168;14.024;2023-07-31T00:29:20;21.30;85.90
38436;DHT22;24220;48.168;14.024;2023-07-31T00:31:50;21.30;86.00
38436;DHT22;24220;48.168;14.024;2023-07-31T00:34:19;21.30;85.90
38436;DHT22;24220;48.168;14.024;2023-07-31T00:36:47;21.30;85.90
38436;DHT22;24220;48.168;14.024;2023-07-31T00:39:14;21.30;86.00
38436;DHT22;24220;48.168;14.024;2023-07-31T00:41:44;21.30;85.90
38436;DHT22;24220;48.168;14.024;2023-07-31T00:44:13;21.30;86.00
38436;DHT22;24220;48.168;14.024;2023-07-31T00:46:41;21.30;86.00
38436;DHT22;24220;48.168;14.024;2023-07-31T00:49:08;21.30;85.90
38436;DHT22;24220;48.168;14.024;2023-07-31T00:51:36;21.30;85.80
38436;DHT22;24220;48.168;14.024;2023-07-31T00:54:03;21.20;86.00
38436;DHT22;24220;48.168;14.024;2023-07-31T00:56:35;21.20;86.00
38436;DHT22;24220;48.168;14.024;2023-07-31T00:59:06;21.20;85.90
38436;DHT22;24220;48.168;14.024;2023-07-31T01:01:36;21.20;86.10
38436;DHT22;24220;48.168;14.024;2023-07-31T01:04:05;21.20;86.20
38436;DHT22;24220;48.168;14.024;2023-07-31T01:06:50;21.20;85.90
38436;DHT22;24220;48.168;14.024;2023-07-31T01:12:03;21.20;85.70
38436;DHT22;24220;48.168;14.024;2023-07-31T01:14:33;21.20;85.60
38436;DHT22;24220;48.168;14.024;2023-07-31T01:17:02;21.20;85.60
38436;DHT22;24220;48.168;14.024;2023-07-31T01:19:32;21.20;85.50
38436;DHT22;24220;48.168;14.024;2023-07-31T01:24:55;21.20;85.40
38436;DHT22;24220;48.168;14.024;2023-07-31T01:27:30;21.10;85.10
38436;DHT22;24220;48.168;14.024;2023-07-31T01:30:11;21.10;85.10
38436;DHT22;24220;48.168;14.024;2023-07-31T01:32:46;21.10;85.10
38436;DHT22;24220;48.168;14.024;2023-07-31T01:35:17;21.10;84.80
38436;DHT22;24220;48.168;14.024;2023-07-31T01:37:49;21.10;84.60
38436;DHT22;24220;48.168;14.024;2023-07-31T01:40:21;21.10;84.60
38436;DHT22;24220;48.168;14.024;2023-07-31T01:42:49;21.10;84.40
38436;DHT22;24220;48.168;14.024;2023-07-31T01:45:18;21.00;84.10
38436;DHT22;24220;48.168;14.024;2023-07-31T01:47:46;21.00;83.80
38436;DHT22;24220;48.168;14.024;2023-07-31T01:50:14;21.00;83.80
38436;DHT22;24220;48.168;14.024;2023-07-31T01:52:44;21.00;83.40
38436;DHT22;24220;48.168;14.024;2023-07-31T01:55:13;21.00;83.40
38436;DHT22;24220;48.168;14.024;2023-07-31T01:57:41;21.00;83.20
38436;DHT22;24220;48.168;14.024;2023-07-31T02:00:08;20.90;83.10
38436;DHT22;24220;48.168;14.024;2023-07-31T02:02:36;20.90;83.00
38436;DHT22;24220;48.168;14.024;2023-07-31T02:05:06;20.90;82.90
38436;DHT22;24220;48.168;14.024;2023-07-31T02:07:33;20.90;82.60
38436;DHT22;24220;48.168;14.024;2023-07-31T02:10:01;20.90;82.70
38436;DHT22;24220;48.168;14.024;2023-07-31T02:12:28;20.90;82.50
38436;DHT22;24220;48.168;14.024;2023-07-31T02:15:00;20.80;82.20
38436;DHT22;24220;48.168;14.024;2023-07-31T02:17:28;20.80;82.20
38436;DHT22;24220;48.168;14.024;2023-07-31T02:19:56;20.80;82.20
38436;DHT22;24220;48.168;14.024;2023-07-31T02:22:23;20.80;82.00
38436;DHT22;24220;48.168;14.024;2023-07-31T02:24:53;20.80;81.70
38436;DHT22;24220;48.168;14.024;2023-07-31T02:27:21;20.80;81.50
38436;DHT22;24220;48.168;14.024;2023-07-31T02:29:53;20.80;81.80
38436;DHT22;24220;48.168;14.024;2023-07-31T02:32:21;20.80;81.50
38436;DHT22;24220;48.168;14.024;2023-07-31T02:34:48;20.70;81.30
38436;DHT22;24220;48.168;14.024;2023-07-31T02:37:18;20.70;81.20
38436;DHT22;24220;48.168;14.024;2023-07-31T02:39:48;20.70;81.20
38436;DHT22;24220;48.168;14.024;2023-07-31T02:42:15;20.70;80.90
38436;DHT22;24220;48.168;14.024;2023-07-31T02:44:45;20.70;80.80
38436;DHT22;24220;48.168;14.024;2023-07-31T02:47:17;20.60;80.80
38436;DHT22;24220;48.168;14.024;2023-07-31T02:49:47;20.60;80.70
38436;DHT22;24220;48.168;14.024;2023-07-31T02:52:14;20.70;80.30
38436;DHT22;24220;48.168;14.024;2023-07-31T02:54:41;20.60;80.20
38436;DHT22;24220;48.168;14.024;2023-07-31T02:57:09;20.60;80.20
38436;DHT22;24220;48.168;14.024;2023-07-31T02:59:38;20.60;80.20
38436;DHT22;24220;48.168;14.024;2023-07-31T03:02:08;20.60;80.10
38436;DHT22;24220;48.168;14.024;2023-07-31T03:04:35;20.60;80.30
38436;DHT22;24220;48.168;14.024;2023-07-31T03:07:02;20.60;80.20
38436;DHT22;24220;48.168;14.024;2023-07-31T03:09:30;20.50;79.90
38436;DHT22;24220;48.168;14.024;2023-07-31T03:12:00;20.50;79.90
38436;DHT22;24220;48.168;14.024;2023-07-31T03:14:27;20.50;79.60
38436;DHT22;24220;48.168;14.024;2023-07-31T03:16:54;20.50;79.90
38436;DHT22;24220;48.168;14.024;2023-07-31T03:19:22;20.50;79.80
38436;DHT22;24220;48.168;14.024;2023-07-31T03:21:49;20.50;79.70
38436;DHT22;24220;48.168;14.024;2023-07-31T03:24:21;20.40;79.40
38436;DHT22;24220;48.168;14.024;2023-07-31T03:26:53;20.40;79.20
38436;DHT22;24220;48.168;14.024;2023-07-31T03:29:21;20.40;79.10
38436;DHT22;24220;48.168;14.024;2023-07-31T03:31:50;20.40;79.10
38436;DHT22;24220;48.168;14.024;2023-07-31T03:34:20;20.40;79.00
38436;DHT22;24220;48.168;14.024;2023-07-31T03:36:47;20.40;78.70
38436;DHT22;24220;48.168;14.024;2023-07-31T03:39:15;20.30;78.70
38436;DHT22;24220;48.168;14.024;2023-07-31T03:41:44;20.30;78.70
38436;DHT22;24220;48.168;14.024;2023-07-31T03:44:14;20.30;78.70
38436;DHT22;24220;48.168;14.024;2023-07-31T03:46:43;20.30;78.70
38436;DHT22;24220;48.168;14.024;2023-07-31T03:49:11;20.30;78.80
38436;DHT22;24220;48.168;14.024;2023-07-31T03:51:40;20.30;78.70
38436;DHT22;24220;48.168;14.024;2023-07-31T03:54:12;20.20;78.30
38436;DHT22;24220;48.168;14.024;2023-07-31T03:56:43;20.20;78.60
38436;DHT22;24220;48.168;14.024;2023-07-31T03:59:13;20.20;78.80
38436;DHT22;24220;48.168;14.024;2023-07-31T04:01:42;20.20;79.00
38436;DHT22;24220;48.168;14.024;2023-07-31T04:04:10;20.20;78.80
38436;DHT22;24220;48.168;14.024;2023-07-31T04:06:39;20.20;78.80
38436;DHT22;24220;48.168;14.024;2023-07-31T04:09:09;20.20;78.80
38436;DHT22;24220;48.168;14.024;2023-07-31T04:11:36;20.20;78.80
38436;DHT22;24220;48.168;14.024;2023-07-31T04:14:06;20.20;78.80
38436;DHT22;24220;48.168;14.024;2023-07-31T04:16:36;20.10;78.60
38436;DHT22;24220;48.168;14.024;2023-07-31T04:19:04;20.10;78.50
38436;DHT22;24220;48.168;14.024;2023-07-31T04:21:31;20.10;78.70
38436;DHT22;24220;48.168;14.024;2023-07-31T04:24:01;20.10;78.60
38436;DHT22;24220;48.168;14.024;2023-07-31T04:26:28;20.10;78.50
38436;DHT22;24220;48.168;14.024;2023-07-31T04:28:55;20.10;78.50
38436;DHT22;24220;48.168;14.024;2023-07-31T04:31:23;20.10;78.50
38436;DHT22;24220;48.168;14.024;2023-07-31T04:33:50;20.00;78.50
38436;DHT22;24220;48.168;14.024;2023-07-31T04:36:17;20.00;78.50
38436;DHT22;24220;48.168;14.024;2023-07-31T04:38:47;20.00;78.50
38436;DHT22;24220;48.168;14.024;2023-07-31T04:41:19;20.00;78.40
38436;DHT22;24220;48.168;14.024;2023-07-31T04:43:47;20.00;78.40
38436;DHT22;24220;48.168;14.024;2023-07-31T04:46:14;19.90;78.30
38436;DHT22;24220;48.168;14.024;2023-07-31T04:48:42;19.90;78.30
38436;DHT22;24220;48.168;14.024;2023-07-31T04:51:09;19.90;78.70
38436;DHT22;24220;48.168;14.024;2023-07-31T04:53:39;19.90;78.70
38436;DHT22;24220;48.168;14.024;2023-07-31T04:56:09;19.90;78.80
38436;DHT22;24220;48.168;14.024;2023-07-31T04:58:37;19.90;79.00
38436;DHT22;24220;48.168;14.024;2023-07-31T05:01:08;19.90;79.00
38436;DHT22;24220;48.168;14.024;2023-07-31T05:03:38;19.90;79.00
38436;DHT22;24220;48.168;14.024;2023-07-31T05:06:10;19.90;79.20
38436;DHT22;24220;48.168;14.024;2023-07-31T05:08:43;19.90;79.00
38436;DHT22;24220;48.168;14.024;2023-07-31T05:11:12;19.90;79.30
38436;DHT22;24220;48.168;14.024;2023-07-31T05:13:42;20.00;79.40
38436;DHT22;24220;48.168;14.024;2023-07-31T05:16:09;20.00;79.20
38436;DHT22;24220;48.168;14.024;2023-07-31T05:18:37;19.90;79.30
38436;DHT22;24220;48.168;14.024;2023-07-31T05:21:07;20.00;79.20
38436;DHT22;24220;48.168;14.024;2023-07-31T05:23:36;20.00;79.40
38436;DHT22;24220;48.168;14.024;2023-07-31T05:26:08;20.00;79.70
38436;DHT22;24220;48.168;14.024;2023-07-31T05:28:47;20.00;80.00
38436;DHT22;24220;48.168;14.024;2023-07-31T05:31:14;20.10;79.70
38436;DHT22;24220;48.168;14.024;2023-07-31T05:33:44;20.10;79.70
38436;DHT22;24220;48.168;14.024;2023-07-31T05:36:14;20.10;79.30
38436;DHT22;24220;48.168;14.024;2023-07-31T05:38:43;20.10;79.30
38436;DHT22;24220;48.168;14.024;2023-07-31T05:41:13;20.10;79.30
38436;DHT22;24220;48.168;14.024;2023-07-31T05:43:43;20.10;78.90
38436;DHT22;24220;48.168;14.024;2023-07-31T05:46:15;20.20;79.20
38436;DHT22;24220;48.168;14.024;2023-07-31T05:48:42;20.20;79.60
38436;DHT22;24220;48.168;14.024;2023-07-31T05:51:12;20.20;79.60
38436;DHT22;24220;48.168;14.024;2023-07-31T05:53:39;20.20;79.70
38436;DHT22;24220;48.168;14.024;2023-07-31T05:56:08;20.20;79.50
38436;DHT22;24220;48.168;14.024;2023-07-31T05:58:37;20.20;79.50
38436;DHT22;24220;48.168;14.024;2023-07-31T06:01:05;20.30;79.50
38436;DHT22;24220;48.168;14.024;2023-07-31T06:03:32;20.30;79.30
38436;DHT22;24220;48.168;14.024;2023-07-31T06:06:00;20.30;79.30
38436;DHT22;24220;48.168;14.024;2023-07-31T06:08:27;20.40;78.90
38436;DHT22;24220;48.168;14.024;2023-07-31T06:10:56;20.40;78.50
38436;DHT22;24220;48.168;14.024;2023-07-31T06:13:24;20.40;78.90
38436;DHT22;24220;48.168;14.024;2023-07-31T06:15:53;20.40;79.40
38436;DHT22;24220;48.168;14.024;2023-07-31T06:18:21;20.50;79.50
38436;DHT22;24220;48.168;14.024;2023-07-31T06:20:50;20.50;79.30
38436;DHT22;24220;48.168;14.024;2023-07-31T06:23:20;20.60;80.10
38436;DHT22;24220;48.168;14.024;2023-07-31T06:25:48;20.60;79.10
38436;DHT22;24220;48.168;14.024;2023-07-31T06:28:18;20.60;79.20
38436;DHT22;24220;48.168;14.024;2023-07-31T06:30:47;20.70;79.30
38436;DHT22;24220;48.168;14.024;2023-07-31T06:33:17;20.70;78.70
38436;DHT22;24220;48.168;14.024;2023-07-31T06:35:44;20.70;78.20
38436;DHT22;24220;48.168;14.024;2023-07-31T06:38:15;20.80;78.40
38436;DHT22;24220;48.168;14.024;2023-07-31T06:40:44;20.80;78.70
38436;DHT22;24220;48.168;14.024;2023-07-31T06:43:12;20.80;78.60
38436;DHT22;24220;48.168;14.024;2023-07-31T06:45:41;20.80;78.70
38436;DHT22;24220;48.168;14.024;2023-07-31T06:48:11;20.90;78.60
38436;DHT22;24220;48.168;14.024;2023-07-31T06:50:39;20.90;78.30
38436;DHT22;24220;48.168;14.024;2023-07-31T06:53:06;21.00;78.40
38436;DHT22;24220;48.168;14.024;2023-07-31T06:55:34;21.00;78.40
38436;DHT22;24220;48.168;14.024;2023-07-31T06:58:01;21.10;78.10
38436;DHT22;24220;48.168;14.024;2023-07-31T07:00:31;21.10;78.00
38436;DHT22;24220;48.168;14.024;2023-07-31T07:02:59;21.10;78.10
38436;DHT22;24220;48.168;14.024;2023-07-31T07:05:26;21.20;77.80
38436;DHT22;24220;48.168;14.024;2023-07-31T07:07:56;21.20;77.00
38436;DHT22;24220;48.168;14.024;2023-07-31T07:10:25;21.30;76.10
38436;DHT22;24220;48.168;14.024;2023-07-31T07:12:55;21.30;76.40
38436;DHT22;24220;48.168;14.024;2023-07-31T07:15:25;21.40;76.40
38436;DHT22;24220;48.168;14.024;2023-07-31T07:17:53;21.40;76.40
38436;DHT22;24220;48.168;14.024;2023-07-31T07:20:20;21.40;75.60
38436;DHT22;24220;48.168;14.024;2023-07-31T07:22:50;21.50;76.00
38436;DHT22;24220;48.168;14.024;2023-07-31T07:25:22;21.50;75.50
38436;DHT22;24220;48.168;14.024;2023-07-31T07:27:49;21.60;75.00
38436;DHT22;24220;48.168;14.024;2023-07-31T07:30:17;21.60;75.20
38436;DHT22;24220;48.168;14.024;2023-07-31T07:32:44;21.70;75.30
38436;DHT22;24220;48.168;14.024;2023-07-31T07:35:12;21.70;75.90
38436;DHT22;24220;48.168;14.024;2023-07-31T07:37:41;21.80;74.40
38436;DHT22;24220;48.168;14.024;2023-07-31T07:40:09;21.80;74.60
38436;DHT22;24220;48.168;14.024;2023-07-31T07:42:37;21.90;74.30
38436;DHT22;24220;48.168;14.024;2023-07-31T07:45:09;21.90;74.30
38436;DHT22;24220;48.168;14.024;2023-07-31T07:47:41;22.00;74.00
38436;DHT22;24220;48.168;14.024;2023-07-31T07:50:08;22.00;73.70
38436;DHT22;24220;48.168;14.024;2023-07-31T07:52:38;22.10;73.80
38436;DHT22;24220;48.168;14.024;2023-07-31T07:55:06;22.20;74.00
38436;DHT22;24220;48.168;14.024;2023-07-31T07:57:36;22.20;71.60
38436;DHT22;24220;48.168;14.024;2023-07-31T08:00:08;22.20;71.70
38436;DHT22;24220;48.168;14.024;2023-07-31T08:02:37;22.30;71.80
38436;DHT22;24220;48.168;14.024;2023-07-31T08:05:05;22.30;72.10
38436;DHT22;24220;48.168;14.024;2023-07-31T08:07:32;22.40;71.20
38436;DHT22;24220;48.168;14.024;2023-07-31T08:09:59;22.40;70.50
38436;DHT22;24220;48.168;14.024;2023-07-31T08:12:30;22.40;69.30
38436;DHT22;24220;48.168;14.024;2023-07-31T08:15:00;22.40;69.30
38436;DHT22;24220;48.168;14.024;2023-07-31T08:17:32;22.40;69.10
38436;DHT22;24220;48.168;14.024;2023-07-31T08:20:02;22.40;68.80
38436;DHT22;24220;48.168;14.024;2023-07-31T08:22:29;22.40;68.80
38436;DHT22;24220;48.168;14.024;2023-07-31T08:24:56;22.50;68.70
38436;DHT22;24220;48.168;14.024;2023-07-31T08:27:24;22.50;68.80
38436;DHT22;24220;48.168;14.024;2023-07-31T08:29:52;22.50;68.80
38436;DHT22;24220;48.168;14.024;2023-07-31T08:32:21;22.50;68.70
38436;DHT22;24220;48.168;14.024;2023-07-31T08:34:49;22.50;68.60
38436;DHT22;24220;48.168;14.024;2023-07-31T08:37:16;22.60;68.70
38436;DHT22;24220;48.168;14.024;2023-07-31T08:39:43;22.60;69.00
38436;DHT22;24220;48.168;14.024;2023-07-31T08:42:15;22.70;70.30
38436;DHT22;24220;48.168;14.024;2023-07-31T08:44:46;22.70;69.80
38436;DHT22;24220;48.168;14.024;2023-07-31T08:47:15;22.80;69.70
38436;DHT22;24220;48.168;14.024;2023-07-31T08:49:46;22.90;68.40
38436;DHT22;24220;48.168;14.024;2023-07-31T08:52:14;22.90;68.30
38436;DHT22;24220;48.168;14.024;2023-07-31T08:54:41;22.90;68.30
38436;DHT22;24220;48.168;14.024;2023-07-31T08:57:10;22.90;67.80
38436;DHT22;24220;48.168;14.024;2023-07-31T08:59:43;23.00;67.40
38436;DHT22;24220;48.168;14.024;2023-07-31T09:02:15;23.00;67.60
38436;DHT22;24220;48.168;14.024;2023-07-31T09:04:44;23.00;67.20
38436;DHT22;24220;48.168;14.024;2023-07-31T09:07:12;23.00;67.30
38436;DHT22;24220;48.168;14.024;2023-07-31T09:09:45;23.00;67.90
38436;DHT22;24220;48.168;14.024;2023-07-31T09:12:13;23.00;68.00
38436;DHT22;24220;48.168;14.024;2023-07-31T09:14:40;23.00;68.30
38436;DHT22;24220;48.168;14.024;2023-07-31T09:17:11;23.00;67.80
38436;DHT22;24220;48.168;14.024;2023-07-31T09:19:38;23.00;66.70
38436;DHT22;24220;48.168;14.024;2023-07-31T09:22:06;23.00;66.50
38436;DHT22;24220;48.168;14.024;2023-07-31T09:24:36;23.00;66.50
38436;DHT22;24220;48.168;14.024;2023-07-31T09:27:06;23.10;67.30
38436;DHT22;24220;48.168;14.024;2023-07-31T09:29:33;23.10;66.70
38436;DHT22;24220;48.168;14.024;2023-07-31T09:32:00;23.10;66.90
38436;DHT22;24220;48.168;14.024;2023-07-31T09:34:37;23.10;67.30
38436;DHT22;24220;48.168;14.024;2023-07-31T09:37:13;23.10;68.20
38436;DHT22;24220;48.168;14.024;2023-07-31T09:39:49;23.10;68.10
38436;DHT22;24220;48.168;14.024;2023-07-31T09:42:27;23.20;67.70
38436;DHT22;24220;48.168;14.024;2023-07-31T09:45:11;23.20;68.20
38436;DHT22;24220;48.168;14.024;2023-07-31T09:47:49;23.20;67.90
38436;DHT22;24220;48.168;14.024;2023-07-31T09:50:16;23.30;67.90
38436;DHT22;24220;48.168;14.024;2023-07-31T09:52:43;23.30;68.20
38436;DHT22;24220;48.168;14.024;2023-07-31T09:55:11;23.40;68.10
38436;DHT22;24220;48.168;14.024;2023-07-31T09:57:41;23.40;67.50
38436;DHT22;24220;48.168;14.024;2023-07-31T10:00:15;23.50;67.00
38436;DHT22;24220;48.168;14.024;2023-07-31T10:02:45;23.50;67.00
38436;DHT22;24220;48.168;14.024;2023-07-31T10:05:20;23.60;67.00
38436;DHT22;24220;48.168;14.024;2023-07-31T10:07:54;23.60;68.10
38436;DHT22;24220;48.168;14.024;2023-07-31T10:10:23;23.70;68.50
38436;DHT22;24220;48.168;14.024;2023-07-31T10:12:54;23.70;67.50
38436;DHT22;24220;48.168;14.024;2023-07-31T10:15:22;23.80;67.70
38436;DHT22;24220;48.168;14.024;2023-07-31T10:17:53;23.80;67.80
38436;DHT22;24220;48.168;14.024;2023-07-31T10:20:24;23.90;68.00
38436;DHT22;24220;48.168;14.024;2023-07-31T10:22:54;24.00;67.10
38436;DHT22;24220;48.168;14.024;2023-07-31T10:25:22;24.00;65.70
38436;DHT22;24220;48.168;14.024;2023-07-31T10:27:51;24.10;64.80
38436;DHT22;24220;48.168;14.024;2023-07-31T10:30:25;24.20;65.60
38436;DHT22;24220;48.168;14.024;2023-07-31T10:32:56;24.20;64.90
38436;DHT22;24220;48.168;14.024;2023-07-31T10:35:25;24.30;65.60
38436;DHT22;24220;48.168;14.024;2023-07-31T10:37:52;24.30;65.70
38436;DHT22;24220;48.168;14.024;2023-07-31T10:40:28;24.40;67.50
38436;DHT22;24220;48.168;14.024;2023-07-31T10:43:02;24.50;65.80
38436;DHT22;24220;48.168;14.024;2023-07-31T10:48:15;24.60;65.90
38436;DHT22;24220;48.168;14.024;2023-07-31T10:50:54;24.60;67.10
38436;DHT22;24220;48.168;14.024;2023-07-31T10:53:29;24.70;65.00
38436;DHT22;24220;48.168;14.024;2023-07-31T10:56:03;24.80;63.90
38436;DHT22;24220;48.168;14.024;2023-07-31T10:58:34;24.80;63.20
38436;DHT22;24220;48.168;14.024;2023-07-31T11:01:05;24.90;63.10
38436;DHT22;24220;48.168;14.024;2023-07-31T11:03:50;24.90;62.80
38436;DHT22;24220;48.168;14.024;2023-07-31T11:06:20;25.00;63.00
38436;DHT22;24220;48.168;14.024;2023-07-31T11:08:49;25.00;62.10
38436;DHT22;24220;48.168;14.024;2023-07-31T11:11:18;25.10;62.50
38436;DHT22;24220;48.168;14.024;2023-07-31T11:13:52;25.10;61.20
38436;DHT22;24220;48.168;14.024;2023-07-31T11:16:24;25.10;61.00
38436;DHT22;24220;48.168;14.024;2023-07-31T11:18:56;25.10;62.30
38436;DHT22;24220;48.168;14.024;2023-07-31T11:21:25;25.10;61.90
38436;DHT22;24220;48.168;14.024;2023-07-31T11:23:56;25.10;61.50
38436;DHT22;24220;48.168;14.024;2023-07-31T11:26:26;25.10;61.40
38436;DHT22;24220;48.168;14.024;2023-07-31T11:28:56;25.10;61.70
38436;DHT22;24220;48.168;14.024;2023-07-31T11:31:26;25.10;61.60
38436;DHT22;24220;48.168;14.024;2023-07-31T11:34:06;25.20;61.70
38436;DHT22;24220;48.168;14.024;2023-07-31T11:36:40;25.20;62.50
38436;DHT22;24220;48.168;14.024;2023-07-31T11:39:11;25.20;62.30
38436;DHT22;24220;48.168;14.024;2023-07-31T11:41:41;25.20;62.00
38436;DHT22;24220;48.168;14.024;2023-07-31T11:44:11;25.30;62.80
38436;DHT22;24220;48.168;14.024;2023-07-31T11:46:56;25.30;63.00
38436;DHT22;24220;48.168;14.024;2023-07-31T11:49:26;25.30;63.20
38436;DHT22;24220;48.168;14.024;2023-07-31T11:51:54;25.30;63.50
38436;DHT22;24220;48.168;14.024;2023-07-31T11:54:21;25.40;62.50
38436;DHT22;24220;48.168;14.024;2023-07-31T11:56:49;25.50;62.80
38436;DHT22;24220;48.168;14.024;2023-07-31T11:59:17;25.50;63.00
38436;DHT22;24220;48.168;14.024;2023-07-31T12:01:47;25.50;62.40
38436;DHT22;24220;48.168;14.024;2023-07-31T12:04:17;25.50;62.60
38436;DHT22;24220;48.168;14.024;2023-07-31T12:06:44;25.60;63.00
38436;DHT22;24220;48.168;14.024;2023-07-31T12:09:14;25.60;62.90
38436;DHT22;24220;48.168;14.024;2023-07-31T12:11:45;25.80;61.60
38436;DHT22;24220;48.168;14.024;2023-07-31T12:14:28;25.80;62.60
38436;DHT22;24220;48.168;14.024;2023-07-31T12:17:04;25.90;62.00
38436;DHT22;24220;48.168;14.024;2023-07-31T12:19:31;25.90;62.30
38436;DHT22;24220;48.168;14.024;2023-07-31T12:22:00;26.00;62.70
38436;DHT22;24220;48.168;14.024;2023-07-31T12:24:27;26.00;62.20
38436;DHT22;24220;48.168;14.024;2023-07-31T12:26:55;26.00;62.40
38436;DHT22;24220;48.168;14.024;2023-07-31T12:29:33;26.00;62.30
38436;DHT22;24220;48.168;14.024;2023-07-31T12:32:00;26.20;62.80
38436;DHT22;24220;48.168;14.024;2023-07-31T12:34:27;26.20;62.30
38436;DHT22;24220;48.168;14.024;2023-07-31T12:36:55;26.30;61.70
38436;DHT22;24220;48.168;14.024;2023-07-31T12:39:24;26.40;59.70
38436;DHT22;24220;48.168;14.024;2023-07-31T12:41:54;26.50;60.00
38436;DHT22;24220;48.168;14.024;2023-07-31T12:44:23;26.60;59.10
38436;DHT22;24220;48.168;14.024;2023-07-31T12:46:51;26.80;59.30
38436;DHT22;24220;48.168;14.024;2023-07-31T12:49:20;26.80;58.50
38436;DHT22;24220;48.168;14.024;2023-07-31T12:51:50;27.00;58.60
38436;DHT22;24220;48.168;14.024;2023-07-31T12:54:17;27.00;57.60
38436;DHT22;24220;48.168;14.024;2023-07-31T12:56:44;27.10;56.30
38436;DHT22;24220;48.168;14.024;2023-07-31T12:59:14;27.20;57.60
38436;DHT22;24220;48.168;14.024;2023-07-31T13:01:41;27.30;58.60
38436;DHT22;24220;48.168;14.024;2023-07-31T13:04:09;27.40;58.10
38436;DHT22;24220;48.168;14.024;2023-07-31T13:06:36;27.50;57.10
38436;DHT22;24220;48.168;14.024;2023-07-31T13:09:04;27.50;58.00
38436;DHT22;24220;48.168;14.024;2023-07-31T13:11:33;27.60;57.40
38436;DHT22;24220;48.168;14.024;2023-07-31T13:14:00;27.70;58.50
38436;DHT22;24220;48.168;14.024;2023-07-31T13:16:30;27.80;57.60
38436;DHT22;24220;48.168;14.024;2023-07-31T13:19:00;27.90;56.90
38436;DHT22;24220;48.168;14.024;2023-07-31T13:21:28;28.00;56.10
38436;DHT22;24220;48.168;14.024;2023-07-31T13:23:57;28.10;55.70
38436;DHT22;24220;48.168;14.024;2023-07-31T13:26:26;28.20;55.60
38436;DHT22;24220;48.168;14.024;2023-07-31T13:28:53;28.30;55.50
38436;DHT22;24220;48.168;14.024;2023-07-31T13:31:23;28.40;54.50
38436;DHT22;24220;48.168;14.024;2023-07-31T13:33:50;28.50;55.00
38436;DHT22;24220;48.168;14.024;2023-07-31T13:36:18;28.60;55.80
38436;DHT22;24220;48.168;14.024;2023-07-31T13:38:45;28.70;54.30
38436;DHT22;24220;48.168;14.024;2023-07-31T13:41:12;28.80;53.70
38436;DHT22;24220;48.168;14.024;2023-07-31T13:43:44;28.90;53.30
38436;DHT22;24220;48.168;14.024;2023-07-31T13:46:12;28.90;52.70
38436;DHT22;24220;48.168;14.024;2023-07-31T13:48:42;28.90;52.00
38436;DHT22;24220;48.168;14.024;2023-07-31T13:51:09;29.00;52.30
38436;DHT22;24220;48.168;14.024;2023-07-31T13:53:36;29.00;52.80
38436;DHT22;24220;48.168;14.024;2023-07-31T13:56:04;29.00;52.20
38436;DHT22;24220;48.168;14.024;2023-07-31T13:58:32;28.90;52.40
38436;DHT22;24220;48.168;14.024;2023-07-31T14:01:00;28.90;53.10
38436;DHT22;24220;48.168;14.024;2023-07-31T14:03:27;28.80;52.40
38436;DHT22;24220;48.168;14.024;2023-07-31T14:05:55;28.80;53.10
38436;DHT22;24220;48.168;14.024;2023-07-31T14:08:22;28.70;53.20
38436;DHT22;24220;48.168;14.024;2023-07-31T14:10:50;28.60;52.80
38436;DHT22;24220;48.168;14.024;2023-07-31T14:13:17;28.50;51.90
38436;DHT22;24220;48.168;14.024;2023-07-31T14:15:44;28.50;53.00
38436;DHT22;24220;48.168;14.024;2023-07-31T14:18:12;28.40;53.00
38436;DHT22;24220;48.168;14.024;2023-07-31T14:20:42;28.40;53.40
38436;DHT22;24220;48.168;14.024;2023-07-31T14:23:09;28.30;53.30
38436;DHT22;24220;48.168;14.024;2023-07-31T14:25:38;28.20;53.30
38436;DHT22;24220;48.168;14.024;2023-07-31T14:28:06;28.20;53.20
38436;DHT22;24220;48.168;14.024;2023-07-31T14:30:36;28.10;54.40
38436;DHT22;24220;48.168;14.024;2023-07-31T14:33:08;28.10;53.50
38436;DHT22;24220;48.168;14.024;2023-07-31T14:35:35;28.10;53.40
38436;DHT22;24220;48.168;14.024;2023-07-31T14:38:04;28.10;54.40
38436;DHT22;24220;48.168;14.024;2023-07-31T14:40:32;28.00;53.20
38436;DHT22;24220;48.168;14.024;2023-07-31T14:42:59;28.00;53.30
38436;DHT22;24220;48.168;14.024;2023-07-31T14:45:26;28.00;53.40
38436;DHT22;24220;48.168;14.024;2023-07-31T14:47:54;27.90;52.90
38436;DHT22;24220;48.168;14.024;2023-07-31T14:50:25;27.80;53.20
38436;DHT22;24220;48.168;14.024;2023-07-31T14:52:52;27.80;52.80
38436;DHT22;24220;48.168;14.024;2023-07-31T14:55:20;27.80;53.30
38436;DHT22;24220;48.168;14.024;2023-07-31T14:57:48;27.80;53.30
38436;DHT22;24220;48.168;14.024;2023-07-31T15:00:15;27.80;53.10
38436;DHT22;24220;48.168;14.024;2023-07-31T15:02:43;27.80;53.40
38436;DHT22;24220;48.168;14.024;2023-07-31T15:05:13;27.80;53.20
38436;DHT22;24220;48.168;14.024;2023-07-31T15:07:40;27.80;54.00
38436;DHT22;24220;48.168;14.024;2023-07-31T15:10:08;27.80;54.60
38436;DHT22;24220;48.168;14.024;2023-07-31T15:12:40;27.70;53.60
38436;DHT22;24220;48.168;14.024;2023-07-31T15:15:08;27.70;54.40
38436;DHT22;24220;48.168;14.024;2023-07-31T15:17:35;27.70;54.40
38436;DHT22;24220;48.168;14.024;2023-07-31T15:20:03;27.70;54.40
38436;DHT22;24220;48.168;14.024;2023-07-31T15:22:31;27.70;54.20
38436;DHT22;24220;48.168;14.024;2023-07-31T15:25:00;27.70;54.90
38436;DHT22;24220;48.168;14.024;2023-07-31T15:27:28;27.70;54.50
38436;DHT22;24220;48.168;14.024;2023-07-31T15:29:55;27.70;54.90
38436;DHT22;24220;48.168;14.024;2023-07-31T15:32:22;27.70;55.40
38436;DHT22;24220;48.168;14.024;2023-07-31T15:34:53;27.70;54.90
38436;DHT22;24220;48.168;14.024;2023-07-31T15:37:20;27.70;54.50